Weather at Sevilla Airport

Public forecast

Using degrees Celsius for public forecast. Weather courtesy of forecast.io.

Current aviation weather report (METAR) for Sevilla Airport

Retrieved 2021/12/06 05:30 UTC (22 minutes ago):

LEZL 060530Z 00000KT CAVOK 04/03 Q1028 NOSIG

Aviation forecast (TAF) for Sevilla Airport

Retrieved 2021-12-06 03:27 UTC (2 hours ago):

TAF LEZL 060200Z 0603/0703 17004KT CAVOK TX17/0616Z TN04/0607Z